createdAt,value
2019-02-25T00:00:53.745Z,102663.02
2019-02-25T00:03:23.034Z,102663.97
2019-02-25T00:05:52.001Z,102662.25
2019-02-25T00:08:20.954Z,102666.57
2019-02-25T00:10:49.938Z,102665.88
2019-02-25T00:13:18.840Z,102658.67
2019-02-25T00:15:47.726Z,102650.00
2019-02-25T00:18:16.674Z,102662.67
2019-02-25T00:20:45.576Z,102656.52
2019-02-25T00:23:14.524Z,102661.70
2019-02-25T00:25:43.403Z,102655.79
2019-02-25T00:28:12.365Z,102655.08
2019-02-25T00:30:41.514Z,102647.85
2019-02-25T00:33:10.313Z,102657.42
2019-02-25T00:35:39.258Z,102648.47
2019-02-25T00:38:08.297Z,102660.08
2019-02-25T00:40:37.281Z,102657.91
2019-02-25T00:43:06.277Z,102667.14
2019-02-25T00:45:35.855Z,102663.70
2019-02-25T00:48:04.811Z,102666.12
2019-02-25T00:50:33.817Z,102668.06
2019-02-25T00:53:02.737Z,102658.95
2019-02-25T00:55:31.722Z,102663.52
2019-02-25T00:58:00.610Z,102664.39
2019-02-25T01:00:29.644Z,102660.37
2019-02-25T01:02:58.665Z,102661.97
2019-02-25T01:05:27.515Z,102656.96
2019-02-25T01:07:56.494Z,102661.23
2019-02-25T01:10:25.318Z,102657.56
2019-02-25T01:12:54.295Z,102662.80
2019-02-25T01:15:23.177Z,102659.27
2019-02-25T01:17:52.154Z,102661.98
2019-02-25T01:20:21.448Z,102662.50
2019-02-25T01:22:50.394Z,102669.19
2019-02-25T01:25:19.395Z,102662.60
2019-02-25T01:27:48.280Z,102656.20
2019-02-25T01:30:18.041Z,102659.95
2019-02-25T01:32:47.030Z,102661.19
2019-02-25T01:35:15.900Z,102660.33
2019-02-25T01:37:44.950Z,102664.48
2019-02-25T01:40:13.826Z,102663.35
2019-02-25T01:42:42.726Z,102667.22
2019-02-25T01:45:12.462Z,102670.53
2019-02-25T01:47:41.401Z,102675.48
2019-02-25T01:50:10.626Z,102670.48
2019-02-25T01:52:39.571Z,102665.31
2019-02-25T01:55:08.945Z,102662.62
2019-02-25T01:57:37.826Z,102659.69
2019-02-25T02:00:09.567Z,102660.37
2019-02-25T02:02:38.465Z,102660.59
2019-02-25T02:05:07.465Z,102663.09
2019-02-25T02:07:36.322Z,102659.36
2019-02-25T02:10:06.346Z,102656.05
2019-02-25T02:12:35.212Z,102660.52
2019-02-25T02:15:04.661Z,102661.10
2019-02-25T02:17:33.450Z,102667.20
2019-02-25T02:20:02.459Z,102669.03
2019-02-25T02:22:31.286Z,102669.21
2019-02-25T02:25:00.222Z,102672.00
2019-02-25T02:27:28.981Z,102675.64
2019-02-25T02:29:57.905Z,102674.93
2019-02-25T02:32:26.878Z,102669.47
2019-02-25T02:34:55.694Z,102664.59
2019-02-25T02:37:24.566Z,102663.98
2019-02-25T02:39:53.568Z,102670.51
2019-02-25T02:42:23.126Z,102658.80
2019-02-25T02:44:57.545Z,102658.59
2019-02-25T02:48:12.824Z,102663.12
2019-02-25T02:50:41.769Z,102666.48
2019-02-25T02:53:10.592Z,102665.17
2019-02-25T02:55:39.523Z,102665.53
2019-02-25T02:58:08.387Z,102664.92
2019-02-25T03:00:37.433Z,102672.97
2019-02-25T03:03:06.375Z,102666.45
2019-02-25T03:05:35.305Z,102668.59
2019-02-25T03:08:04.324Z,102665.11
2019-02-25T03:10:33.327Z,102661.19
2019-02-25T03:13:02.205Z,102667.28
2019-02-25T03:15:31.223Z,102665.28
2019-02-25T03:18:00.093Z,102663.44
2019-02-25T03:20:29.087Z,102666.78
2019-02-25T03:22:58.067Z,102672.68
2019-02-25T03:25:26.998Z,102668.54
2019-02-25T03:27:55.939Z,102670.89
2019-02-25T03:30:24.921Z,102658.85
2019-02-25T03:32:53.835Z,102665.20
2019-02-25T03:35:22.747Z,102663.03
2019-02-25T03:37:51.524Z,102658.46
2019-02-25T03:40:21.079Z,102662.17
2019-02-25T03:42:50.098Z,102667.72
2019-02-25T03:45:19.505Z,102663.75
2019-02-25T03:47:48.438Z,102661.73
2019-02-25T03:50:17.583Z,102658.27
2019-02-25T03:52:46.511Z,102657.98
2019-02-25T03:55:17.281Z,102656.33
2019-02-25T03:57:46.703Z,102647.49
2019-02-25T04:00:17.907Z,102652.30
2019-02-25T04:02:46.807Z,102649.59
2019-02-25T04:05:15.748Z,102647.98
2019-02-25T04:07:44.670Z,102656.19
2019-02-25T04:10:14.110Z,102656.61
2019-02-25T04:12:43.051Z,102658.46
2019-02-25T04:15:14.968Z,102653.30
2019-02-25T04:17:43.855Z,102660.37
2019-02-25T04:20:13.974Z,102667.48
2019-02-25T04:22:42.984Z,102662.88
2019-02-25T04:25:11.926Z,102664.87
2019-02-25T04:27:40.789Z,102662.88
2019-02-25T04:30:12.275Z,102662.11
2019-02-25T04:32:41.187Z,102660.67
2019-02-25T04:35:10.594Z,102663.81
2019-02-25T04:37:39.535Z,102660.25
2019-02-25T04:40:10.333Z,102667.82
2019-02-25T04:42:39.356Z,102659.58
2019-02-25T04:45:11.479Z,102666.26
2019-02-25T04:47:40.322Z,102663.47
2019-02-25T04:50:10.136Z,102671.87
2019-02-25T04:52:39.080Z,102675.05
2019-02-25T04:55:08.688Z,102674.73
2019-02-25T04:57:37.729Z,102681.25
2019-02-25T05:00:09.361Z,102679.32
2019-02-25T05:02:38.314Z,102672.63
2019-02-25T05:05:07.372Z,102676.97
2019-02-25T05:07:36.267Z,102670.23
2019-02-25T05:10:07.296Z,102661.91
2019-02-25T05:12:36.144Z,102656.47
2019-02-25T05:15:05.608Z,102649.34
2019-02-25T05:17:34.621Z,102656.48
2019-02-25T05:20:03.560Z,102659.14
2019-02-25T05:22:32.496Z,102659.53
2019-02-25T05:25:06.250Z,102667.76
2019-02-25T05:27:35.070Z,102671.89
2019-02-25T05:30:04.273Z,102671.17
2019-02-25T05:32:33.228Z,102675.22
2019-02-25T05:35:02.039Z,102675.98
2019-02-25T05:37:31.024Z,102681.27
2019-02-25T05:39:59.884Z,102672.02
2019-02-25T05:42:28.714Z,102673.88
2019-02-25T05:44:57.518Z,102667.84
2019-02-25T05:47:26.507Z,102663.08
2019-02-25T05:49:55.424Z,102661.31
2019-02-25T05:52:24.483Z,102665.86
2019-02-25T05:54:53.292Z,102669.08
2019-02-25T05:57:22.345Z,102666.77
2019-02-25T05:59:51.247Z,102664.66
2019-02-25T06:02:20.262Z,102674.17
2019-02-25T06:04:49.259Z,102672.38
2019-02-25T06:07:18.080Z,102676.28
2019-02-25T06:09:47.007Z,102679.23
2019-02-25T06:12:15.966Z,102677.53
2019-02-25T06:14:45.023Z,102682.12
2019-02-25T06:17:13.848Z,102695.41
2019-02-25T06:19:42.673Z,102698.95
2019-02-25T06:22:11.648Z,102697.42
2019-02-25T06:24:40.615Z,102697.72
2019-02-25T06:27:09.533Z,102693.75
2019-02-25T06:29:38.549Z,102696.18
2019-02-25T06:32:07.472Z,102691.84
2019-02-25T06:34:36.258Z,102689.34
2019-02-25T06:37:05.287Z,102690.56
2019-02-25T06:39:34.200Z,102696.17
2019-02-25T06:42:03.151Z,102684.76
2019-02-25T06:44:32.023Z,102685.84
2019-02-25T06:47:00.985Z,102695.39
2019-02-25T06:49:29.769Z,102689.03
2019-02-25T06:51:58.721Z,102682.10
2019-02-25T06:54:27.693Z,102693.20
2019-02-25T06:56:56.490Z,102690.11
2019-02-25T06:59:25.395Z,102685.89
2019-02-25T07:01:54.335Z,102686.80
2019-02-25T07:04:31.451Z,102692.47
2019-02-25T07:07:04.616Z,102687.33
2019-02-25T07:09:44.434Z,102676.73
2019-02-25T07:12:26.757Z,102680.94
2019-02-25T07:15:09.647Z,102680.42
2019-02-25T07:18:00.871Z,102686.69
2019-02-25T07:20:45.755Z,102697.50
2019-02-25T07:23:25.729Z,102690.45
2019-02-25T07:26:17.248Z,102683.59
2019-02-25T07:28:52.856Z,102692.33
2019-02-25T07:31:39.348Z,102692.88
2019-02-25T07:34:26.435Z,102695.55
2019-02-25T07:37:13.964Z,102703.52
2019-02-25T07:40:02.146Z,102706.48
2019-02-25T07:42:56.107Z,102711.98
2019-02-25T07:45:38.671Z,102705.72
2019-02-25T07:48:13.473Z,102706.95
2019-02-25T07:50:53.162Z,102705.94
2019-02-25T07:53:31.654Z,102710.51
2019-02-25T07:56:14.842Z,102715.13
2019-02-25T07:59:01.642Z,102707.86
2019-02-25T08:01:58.413Z,102703.38
2019-02-25T08:04:46.410Z,102713.00
2019-02-25T08:07:21.508Z,102709.56
2019-02-25T08:10:08.737Z,102708.17
2019-02-25T08:12:46.413Z,102704.09
2019-02-25T08:15:43.506Z,102712.84
2019-02-25T08:18:31.514Z,102706.97
2019-02-25T08:21:12.363Z,102716.42
2019-02-25T08:23:47.371Z,102713.34
2019-02-25T08:26:44.092Z,102710.09
2019-02-25T08:29:40.994Z,102708.92
2019-02-25T08:32:23.401Z,102719.59
2019-02-25T08:35:07.105Z,102719.59
2019-02-25T08:38:06.448Z,102720.00
2019-02-25T08:41:19.700Z,102728.58
2019-02-25T08:44:09.193Z,102731.27
2019-02-25T08:47:06.389Z,102730.14
2019-02-25T08:49:38.950Z,102731.84
2019-02-25T08:52:07.957Z,102739.39
2019-02-25T08:54:36.941Z,102736.52
2019-02-25T08:57:05.912Z,102729.48
2019-02-25T08:59:34.906Z,102735.91
2019-02-25T09:02:03.801Z,102731.06
2019-02-25T09:04:32.788Z,102726.51
2019-02-25T09:07:01.761Z,102726.53
2019-02-25T09:09:30.672Z,102731.30
2019-02-25T09:11:59.657Z,102728.16
2019-02-25T09:14:28.611Z,102730.64
2019-02-25T09:16:57.505Z,102730.06
2019-02-25T09:19:26.463Z,102731.27
2019-02-25T09:21:55.432Z,102725.94
2019-02-25T09:24:25.296Z,102725.69
2019-02-25T09:26:54.330Z,102727.59
2019-02-25T09:29:23.273Z,102732.80
2019-02-25T09:31:52.285Z,102730.56
2019-02-25T09:34:21.234Z,102723.87
2019-02-25T09:36:50.219Z,102721.46
2019-02-25T09:39:19.273Z,102726.70
2019-02-25T09:41:48.127Z,102726.56
2019-02-25T09:44:17.118Z,102720.45
2019-02-25T09:46:45.968Z,102718.83
2019-02-25T09:49:15.083Z,102722.24
2019-02-25T09:51:44.007Z,102722.02
2019-02-25T09:54:12.990Z,102717.20
2019-02-25T09:56:41.851Z,102718.98
2019-02-25T09:59:10.800Z,102717.25
2019-02-25T10:01:39.739Z,102710.86
2019-02-25T10:04:08.911Z,102717.30
2019-02-25T10:06:37.790Z,102706.98
2019-02-25T10:09:08.114Z,102703.46
2019-02-25T10:11:37.131Z,102700.52
2019-02-25T10:14:06.126Z,102703.63
2019-02-25T10:16:34.970Z,102697.00
2019-02-25T10:19:03.912Z,102693.05
2019-02-25T10:21:32.743Z,102690.92
2019-02-25T10:24:01.676Z,102696.86
2019-02-25T10:26:30.658Z,102687.81
2019-02-25T10:28:59.753Z,102681.91
2019-02-25T10:31:28.646Z,102684.41
2019-02-25T10:33:57.495Z,102678.33
2019-02-25T10:36:26.380Z,102678.11
2019-02-25T10:38:55.214Z,102677.53
2019-02-25T10:41:26.174Z,102670.06
2019-02-25T10:43:54.843Z,102675.77
2019-02-25T10:46:23.787Z,102664.37
2019-02-25T10:48:56.308Z,102666.95
2019-02-25T10:51:23.823Z,102670.94
2019-02-25T10:53:53.601Z,102667.58
2019-02-25T10:56:36.625Z,102674.22
2019-02-25T10:59:06.157Z,102676.25
2019-02-25T11:01:37.525Z,102670.78
2019-02-25T11:04:07.062Z,102670.78
2019-02-25T11:06:37.577Z,102676.22
2019-02-25T11:09:31.371Z,102677.45
2019-02-25T11:12:00.411Z,102678.13
2019-02-25T11:14:31.130Z,102681.25
2019-02-25T11:17:00.123Z,102679.78
2019-02-25T11:19:30.775Z,102685.96
2019-02-25T11:21:59.800Z,102681.34
2019-02-25T11:24:28.809Z,102676.96
2019-02-25T11:26:59.063Z,102676.16
2019-02-25T11:29:28.551Z,102675.52
2019-02-25T11:31:57.562Z,102675.52
2019-02-25T11:34:26.656Z,102678.08
2019-02-25T11:36:57.194Z,102670.87
2019-02-25T11:39:27.474Z,102665.96
2019-02-25T11:41:57.219Z,102667.40
2019-02-25T11:44:30.470Z,102665.81
2019-02-25T11:46:56.848Z,102664.14
2019-02-25T11:49:25.736Z,102664.48
2019-02-25T11:51:54.630Z,102660.95
2019-02-25T11:54:23.529Z,102660.81
2019-02-25T11:56:52.530Z,102653.73
2019-02-25T11:59:22.453Z,102655.62
2019-02-25T12:01:54.464Z,102656.16
2019-02-25T12:04:23.487Z,102649.09
2019-02-25T12:06:52.358Z,102645.20
2019-02-25T12:09:21.385Z,102636.27
2019-02-25T12:11:50.311Z,102633.90
2019-02-25T12:14:19.254Z,102624.62
2019-02-25T12:16:48.226Z,102622.09
2019-02-25T12:19:18.198Z,102621.42
2019-02-25T12:21:47.189Z,102617.88
2019-02-25T12:24:16.199Z,102618.05
2019-02-25T12:26:45.226Z,102615.50
2019-02-25T12:29:14.072Z,102610.08
2019-02-25T12:31:43.137Z,102610.89
2019-02-25T12:34:11.954Z,102610.21
2019-02-25T12:36:40.808Z,102608.38
2019-02-25T12:39:09.730Z,102613.88
2019-02-25T12:41:38.719Z,102611.60
2019-02-25T12:44:07.586Z,102608.02
2019-02-25T12:46:36.492Z,102609.64
2019-02-25T12:49:05.470Z,102607.94
2019-02-25T12:51:34.462Z,102606.61
2019-02-25T12:54:03.468Z,102598.36
2019-02-25T12:56:32.424Z,102596.11
2019-02-25T12:59:01.327Z,102598.80
2019-02-25T13:01:30.284Z,102536.83
2019-02-25T13:03:59.339Z,102597.13
2019-02-25T13:06:28.166Z,102591.01
2019-02-25T13:08:57.056Z,102591.67
2019-02-25T13:11:26.108Z,102583.87
2019-02-25T13:13:55.089Z,102584.77
2019-02-25T13:16:24.008Z,102583.94
2019-02-25T13:18:52.933Z,102571.86
2019-02-25T13:21:21.963Z,102570.95
2019-02-25T13:23:50.819Z,102565.27
2019-02-25T13:26:19.929Z,102566.95
2019-02-25T13:28:48.748Z,102560.14
2019-02-25T13:31:17.688Z,102552.30
2019-02-25T13:33:46.609Z,102558.54
2019-02-25T13:36:16.469Z,102555.37
2019-02-25T13:38:45.608Z,102554.45
2019-02-25T13:41:15.270Z,102551.97
2019-02-25T13:43:44.496Z,102544.71
2019-02-25T13:46:13.466Z,102536.52
2019-02-25T13:48:42.745Z,102530.12
2019-02-25T13:51:11.758Z,102516.38
2019-02-25T13:53:40.671Z,102515.05
2019-02-25T13:56:09.657Z,102503.18
2019-02-25T13:58:38.615Z,102506.81
2019-02-25T14:01:07.675Z,102500.81
2019-02-25T14:03:36.579Z,102493.86
2019-02-25T14:06:05.404Z,102488.13
2019-02-25T14:08:34.994Z,102484.95
2019-02-25T14:11:03.998Z,102484.95
2019-02-25T14:13:32.902Z,102475.55
2019-02-25T14:16:01.919Z,102475.03
2019-02-25T14:18:31.016Z,102471.13
2019-02-25T14:21:00.066Z,102469.27
2019-02-25T14:23:28.961Z,102467.14
2019-02-25T14:25:59.171Z,102466.20
2019-02-25T14:28:30.153Z,102459.50
2019-02-25T14:30:59.424Z,102456.13
2019-02-25T14:33:28.366Z,102448.59
2019-02-25T14:35:57.846Z,102440.45
2019-02-25T14:38:27.638Z,102437.69
2019-02-25T14:40:57.728Z,102438.73
2019-02-25T14:43:27.612Z,102436.74
2019-02-25T14:45:58.808Z,102432.98
2019-02-25T14:48:29.871Z,102428.19
2019-02-25T14:50:58.543Z,102421.08
2019-02-25T14:53:29.604Z,102428.52
2019-02-25T14:56:02.974Z,102425.61
2019-02-25T14:58:31.517Z,102426.55
2019-02-25T15:01:00.409Z,102421.88
2019-02-25T15:03:29.549Z,102426.83
2019-02-25T15:05:59.274Z,102417.73
2019-02-25T15:08:30.475Z,102420.46
2019-02-25T15:11:01.913Z,102424.05
2019-02-25T15:13:30.862Z,102418.95
2019-02-25T15:16:01.019Z,102420.63
2019-02-25T15:18:31.286Z,102413.91
2019-02-25T15:21:04.684Z,102418.88
2019-02-25T15:23:34.450Z,102423.00
2019-02-25T15:26:05.641Z,102420.86
2019-02-25T15:28:34.467Z,102430.88
2019-02-25T15:31:04.347Z,102425.86
2019-02-25T15:33:35.836Z,102430.45
2019-02-25T15:36:05.746Z,102424.77
2019-02-25T15:38:36.679Z,102421.81
2019-02-25T15:41:07.427Z,102421.38
2019-02-25T15:43:36.612Z,102411.38
2019-02-25T15:46:05.923Z,102412.37
2019-02-25T15:48:36.946Z,102417.51
2019-02-25T15:51:05.961Z,102411.00
2019-02-25T15:53:35.141Z,102409.86
2019-02-25T15:56:05.901Z,102412.85
2019-02-25T15:58:36.184Z,102410.14
2019-02-25T16:01:05.401Z,102408.23
2019-02-25T16:03:35.152Z,102410.95
2019-02-25T16:06:08.364Z,102417.20
2019-02-25T16:08:38.085Z,102413.02
2019-02-25T16:11:07.047Z,102409.95
2019-02-25T16:13:37.761Z,102409.02
2019-02-25T16:16:09.439Z,102411.72
2019-02-25T16:18:40.396Z,102411.62
2019-02-25T16:21:11.219Z,102409.70
2019-02-25T16:23:41.320Z,102414.81
2019-02-25T16:26:11.849Z,102416.74
2019-02-25T16:28:41.549Z,102411.89
2019-02-25T16:31:12.274Z,102410.13
2019-02-25T16:33:42.526Z,102406.72
2019-02-25T16:36:11.546Z,102414.67
2019-02-25T16:38:40.393Z,102411.56
2019-02-25T16:41:10.252Z,102411.66
2019-02-25T16:43:39.576Z,102407.13
2019-02-25T16:46:09.230Z,102414.95
2019-02-25T16:48:39.045Z,102403.56
2019-02-25T16:51:09.968Z,102405.72
2019-02-25T16:53:39.049Z,102415.98
2019-02-25T16:56:11.398Z,102413.14
2019-02-25T16:58:40.101Z,102415.95
2019-02-25T17:01:10.915Z,102410.03
2019-02-25T17:03:41.429Z,102415.16
2019-02-25T17:06:11.675Z,102409.19
2019-02-25T17:08:42.889Z,102408.94
2019-02-25T17:11:12.873Z,102394.52
2019-02-25T17:13:42.560Z,102408.07
2019-02-25T17:16:18.102Z,102414.19
2019-02-25T17:18:42.228Z,102414.57
2019-02-25T17:21:11.297Z,102420.34
2019-02-25T17:23:40.316Z,102421.40
2019-02-25T17:26:10.590Z,102424.47
2019-02-25T17:28:40.351Z,102420.42
2019-02-25T17:31:11.346Z,102426.21
2019-02-25T17:33:40.091Z,102421.14
2019-02-25T17:36:11.960Z,102425.69
2019-02-25T17:38:41.145Z,102430.09
2019-02-25T17:41:13.187Z,102435.69
2019-02-25T17:43:43.068Z,102434.36
2019-02-25T17:46:14.051Z,102432.66
2019-02-25T17:48:42.807Z,102436.23
2019-02-25T17:51:11.756Z,102438.39
2019-02-25T17:53:40.614Z,102442.42
2019-02-25T17:56:09.596Z,102441.06
2019-02-25T17:58:40.239Z,102448.82
2019-02-25T18:01:09.615Z,102448.47
2019-02-25T18:03:39.557Z,102450.81
2019-02-25T18:06:09.369Z,102450.11
2019-02-25T18:08:39.427Z,102449.77
2019-02-25T18:11:08.898Z,102457.31
2019-02-25T18:13:37.905Z,102455.48
2019-02-25T18:16:08.539Z,102454.36
2019-02-25T18:18:39.187Z,102460.63
2019-02-25T18:21:09.061Z,102457.45
2019-02-25T18:23:38.300Z,102453.71
2019-02-25T18:26:07.449Z,102457.61
2019-02-25T18:28:37.419Z,102459.23
2019-02-25T18:31:09.109Z,102463.33
2019-02-25T18:33:37.869Z,102466.73
2019-02-25T18:36:08.877Z,102461.98
2019-02-25T18:38:38.051Z,102467.41
2019-02-25T18:41:09.123Z,102457.33
2019-02-25T18:43:37.937Z,102469.86
2019-02-25T18:46:07.324Z,102467.34
2019-02-25T18:48:36.438Z,102459.46
2019-02-25T18:51:05.588Z,102464.02
2019-02-25T18:53:34.861Z,102465.50
2019-02-25T18:56:04.186Z,102459.77
2019-02-25T18:58:35.260Z,102459.48
2019-02-25T19:01:04.600Z,102464.84
2019-02-25T19:03:35.339Z,102461.11
2019-02-25T19:06:04.207Z,102456.72
2019-02-25T19:08:33.189Z,102461.47
2019-02-25T19:11:02.150Z,102462.70
2019-02-25T19:13:32.020Z,102466.37
2019-02-25T19:16:01.703Z,102463.58
2019-02-25T19:18:32.186Z,102443.81
2019-02-25T19:21:02.062Z,102469.80
2019-02-25T19:23:34.999Z,102473.55
2019-02-25T19:26:02.804Z,102465.11
2019-02-25T19:28:31.911Z,102462.23
2019-02-25T19:31:00.897Z,102464.19
2019-02-25T19:33:31.282Z,102464.19
2019-02-25T19:36:01.261Z,102461.27
2019-02-25T19:38:33.996Z,102461.11
2019-02-25T19:41:01.906Z,102461.27
2019-02-25T19:43:31.076Z,102461.78
2019-02-25T19:46:01.833Z,102459.86
2019-02-25T19:48:31.272Z,102460.90
2019-02-25T19:51:03.293Z,102456.80
2019-02-25T19:53:35.848Z,102459.88
2019-02-25T19:56:02.631Z,102458.97
2019-02-25T19:58:34.192Z,102460.41
2019-02-25T20:01:04.201Z,102460.47
2019-02-25T20:03:33.056Z,102465.16
2019-02-25T20:06:03.499Z,102465.47
2019-02-25T20:08:32.526Z,102461.79
2019-02-25T20:11:04.426Z,102460.48
2019-02-25T20:13:33.425Z,102469.42
2019-02-25T20:16:07.928Z,102471.38
2019-02-25T20:18:35.278Z,102467.42
2019-02-25T20:21:06.469Z,102464.68
2019-02-25T20:23:34.565Z,102467.37
2019-02-25T20:26:03.631Z,102469.34
2019-02-25T20:28:32.657Z,102470.53
2019-02-25T20:31:05.803Z,102462.09
2019-02-25T20:33:37.398Z,102462.80
2019-02-25T20:36:06.427Z,102465.41
2019-02-25T20:38:37.294Z,102458.69
2019-02-25T20:41:06.084Z,102458.48
2019-02-25T20:43:35.060Z,102463.48
2019-02-25T20:46:06.018Z,102463.03
2019-02-25T20:48:34.835Z,102458.09
2019-02-25T20:51:04.839Z,102457.14
2019-02-25T20:53:34.915Z,102459.09
2019-02-25T20:56:03.852Z,102461.99
2019-02-25T20:58:35.544Z,102457.88
2019-02-25T21:01:07.243Z,102454.95
2019-02-25T21:03:35.338Z,102449.74
2019-02-25T21:06:04.662Z,102451.95
2019-02-25T21:08:35.297Z,102450.75
2019-02-25T21:11:08.582Z,102447.09
2019-02-25T21:13:35.995Z,102449.86
2019-02-25T21:16:08.207Z,102441.02
2019-02-25T21:18:37.320Z,102446.88
2019-02-25T21:21:07.710Z,102442.20
2019-02-25T21:23:37.080Z,102448.08
2019-02-25T21:26:07.408Z,102444.09
2019-02-25T21:28:38.136Z,102439.00
2019-02-25T21:31:11.966Z,102438.05
2019-02-25T21:33:38.202Z,102440.35
2019-02-25T21:36:07.236Z,102440.36
2019-02-25T21:38:36.792Z,102436.33
2019-02-25T21:41:07.446Z,102424.14
2019-02-25T21:43:36.508Z,102441.93
2019-02-25T21:46:05.671Z,102436.13
2019-02-25T21:48:35.209Z,102430.64
2019-02-25T21:51:07.820Z,102430.16
2019-02-25T21:53:35.993Z,102425.30
2019-02-25T21:56:04.989Z,102428.81
2019-02-25T21:58:33.880Z,102420.11
2019-02-25T22:01:02.790Z,102361.44
2019-02-25T22:03:31.574Z,102423.83
2019-02-25T22:06:02.505Z,102423.81
2019-02-25T22:08:33.642Z,102417.61
2019-02-25T22:11:12.572Z,102421.44
2019-02-25T22:13:32.974Z,102414.86
2019-02-25T22:16:03.478Z,102413.77
2019-02-25T22:18:34.138Z,102419.77
2019-02-25T22:21:05.286Z,102412.84
2019-02-25T22:23:35.486Z,102414.11
2019-02-25T22:26:04.646Z,102408.64
2019-02-25T22:28:34.816Z,102416.50
2019-02-25T22:31:06.002Z,102411.19
2019-02-25T22:33:34.722Z,102410.22
2019-02-25T22:36:03.624Z,102412.03
2019-02-25T22:38:32.571Z,102410.73
2019-02-25T22:41:02.309Z,102410.13
2019-02-25T22:43:31.283Z,102412.97
2019-02-25T22:46:02.117Z,102410.17
2019-02-25T22:48:30.810Z,102403.72
2019-02-25T22:51:00.706Z,102402.17
2019-02-25T22:53:30.459Z,102401.17
2019-02-25T22:55:59.442Z,102401.83
2019-02-25T22:58:28.340Z,102405.70
2019-02-25T23:01:05.092Z,102412.22
2019-02-25T23:03:34.086Z,102403.34
2019-02-25T23:06:03.045Z,102415.09
2019-02-25T23:08:32.048Z,102407.54
2019-02-25T23:11:01.107Z,102403.03
2019-02-25T23:13:31.941Z,102411.59
2019-02-25T23:16:00.858Z,102412.02
2019-02-25T23:18:29.843Z,102415.45
2019-02-25T23:21:01.142Z,102411.56
2019-02-25T23:23:30.588Z,102413.14
2019-02-25T23:26:00.041Z,102410.97
2019-02-25T23:28:30.515Z,102412.14
2019-02-25T23:30:59.502Z,102406.66
2019-02-25T23:33:28.368Z,102418.33
2019-02-25T23:35:57.294Z,102421.42
2019-02-25T23:38:26.284Z,102419.90
2019-02-25T23:40:55.246Z,102428.76
2019-02-25T23:43:24.083Z,102426.31
2019-02-25T23:45:53.045Z,102416.13
2019-02-25T23:48:21.902Z,102426.35
2019-02-25T23:50:53.294Z,102424.78
2019-02-25T23:53:21.539Z,102426.34
2019-02-25T23:55:52.032Z,102435.45
2019-02-25T23:58:22.286Z,102439.34
